createdAt,value
2017-10-08T01:36:38.469Z,12.69
2017-10-08T01:36:39.042Z,12.57
2017-10-08T01:36:39.643Z,12.62
2017-10-08T01:36:40.240Z,12.63
2017-10-08T01:36:40.840Z,12.67
2017-10-08T01:36:41.440Z,12.67
2017-10-08T01:36:42.043Z,12.60
2017-10-08T01:36:42.640Z,12.57
2017-10-08T01:37:36.119Z,12.59
2017-10-08T01:37:36.694Z,12.60
2017-10-08T01:37:37.293Z,12.64
2017-10-08T01:37:37.893Z,12.59
2017-10-08T01:37:38.492Z,12.57
2017-10-08T01:37:39.101Z,12.59
2017-10-08T01:37:39.695Z,12.59
2017-10-08T01:37:40.294Z,12.69
2017-10-08T01:38:34.794Z,12.62
2017-10-08T01:38:35.369Z,12.62
2017-10-08T01:38:35.967Z,12.60
2017-10-08T01:38:36.568Z,12.63
2017-10-08T01:38:37.167Z,12.56
2017-10-08T01:38:37.769Z,12.64
2017-10-08T01:38:38.368Z,12.62
2017-10-08T01:38:38.967Z,12.67
2017-10-08T01:39:32.448Z,12.59
2017-10-08T01:39:33.022Z,12.71
2017-10-08T01:39:33.620Z,12.62
2017-10-08T01:39:34.220Z,12.74
2017-10-08T01:39:34.822Z,12.62
2017-10-08T01:39:35.420Z,12.63
2017-10-08T01:39:36.021Z,12.64
2017-10-08T01:39:36.621Z,12.64
2017-10-08T01:40:30.109Z,12.69
2017-10-08T01:40:30.675Z,12.66
2017-10-08T01:40:31.276Z,12.64
2017-10-08T01:40:31.874Z,12.62
2017-10-08T01:40:32.475Z,12.62
2017-10-08T01:40:33.073Z,12.62
2017-10-08T01:40:33.673Z,12.63
2017-10-08T01:40:34.274Z,12.59
2017-10-08T01:41:27.751Z,12.64
2017-10-08T01:41:28.326Z,12.62
2017-10-08T01:41:28.924Z,12.63
2017-10-08T01:41:29.525Z,12.62
2017-10-08T01:41:30.126Z,12.60
2017-10-08T01:41:30.725Z,12.66
2017-10-08T01:41:31.324Z,12.60
2017-10-08T01:41:31.925Z,12.64
2017-10-08T01:42:25.404Z,12.62
2017-10-08T01:42:25.978Z,12.59
2017-10-08T01:42:26.577Z,12.59
2017-10-08T01:42:27.178Z,12.63
2017-10-08T01:42:27.777Z,12.62
2017-10-08T01:42:28.378Z,12.62
2017-10-08T01:42:28.977Z,12.59
2017-10-08T01:42:29.576Z,12.60
2017-10-08T01:43:23.056Z,12.67
2017-10-08T01:43:23.630Z,12.63
2017-10-08T01:43:24.229Z,12.54
2017-10-08T01:43:24.829Z,12.59
2017-10-08T01:43:25.429Z,12.63
2017-10-08T01:43:26.030Z,12.52
2017-10-08T01:43:26.628Z,12.59
2017-10-08T01:43:27.228Z,12.59
2017-10-08T01:44:20.706Z,12.74
2017-10-08T01:44:21.282Z,12.67
2017-10-08T01:44:21.884Z,12.54
2017-10-08T01:44:22.482Z,12.54
2017-10-08T01:44:23.085Z,12.49
2017-10-08T01:44:23.683Z,12.62
2017-10-08T01:44:24.282Z,12.66
2017-10-08T01:44:24.881Z,12.74
2017-10-08T01:45:19.382Z,12.60
2017-10-08T01:45:19.957Z,12.62
2017-10-08T01:45:20.558Z,12.63
2017-10-08T01:45:21.156Z,12.56
2017-10-08T01:45:21.756Z,12.63
2017-10-08T01:45:22.356Z,12.64
2017-10-08T01:45:22.956Z,12.57
2017-10-08T01:45:23.556Z,12.69
2017-10-08T01:46:18.062Z,12.52
2017-10-08T01:46:18.633Z,12.60
2017-10-08T01:46:19.233Z,12.63
2017-10-08T01:46:19.832Z,12.54
2017-10-08T01:46:20.432Z,12.59
2017-10-08T01:46:21.032Z,12.54
2017-10-08T01:46:21.636Z,12.63
2017-10-08T01:46:22.232Z,12.62
2017-10-08T01:47:15.711Z,12.49
2017-10-08T01:47:16.288Z,12.56
2017-10-08T01:47:16.886Z,12.51
2017-10-08T01:47:17.485Z,12.54
2017-10-08T01:47:18.085Z,12.54
2017-10-08T01:47:18.686Z,12.51
2017-10-08T01:47:19.284Z,12.51
2017-10-08T01:47:19.884Z,12.51
2017-10-08T01:48:14.387Z,12.45
2017-10-08T01:48:14.960Z,12.49
2017-10-08T01:48:15.559Z,12.57
2017-10-08T01:48:16.160Z,12.48
2017-10-08T01:48:16.761Z,12.51
2017-10-08T01:48:17.360Z,12.49
2017-10-08T01:48:17.960Z,12.51
2017-10-08T01:48:18.560Z,12.54
2017-10-08T01:49:12.038Z,12.46
2017-10-08T01:49:12.613Z,12.48
2017-10-08T01:49:13.213Z,12.48
2017-10-08T01:49:13.813Z,12.52
2017-10-08T01:49:14.412Z,12.44
2017-10-08T01:49:15.012Z,12.51
2017-10-08T01:49:15.611Z,12.51
2017-10-08T01:49:16.212Z,12.51
2017-10-08T01:50:10.716Z,12.52
2017-10-08T01:50:11.288Z,12.52
2017-10-08T01:50:11.892Z,12.51
2017-10-08T01:50:12.488Z,12.57
2017-10-08T01:50:13.088Z,12.49
2017-10-08T01:50:13.689Z,12.52
2017-10-08T01:50:14.288Z,12.51
2017-10-08T01:50:14.887Z,12.49
2017-10-08T01:51:08.366Z,12.54
2017-10-08T01:51:08.942Z,12.51
2017-10-08T01:51:09.540Z,12.52
2017-10-08T01:51:10.140Z,12.54
2017-10-08T01:51:10.740Z,12.52
2017-10-08T01:51:11.342Z,12.54
2017-10-08T01:51:11.940Z,12.54
2017-10-08T01:51:12.542Z,12.54
2017-10-08T01:52:06.017Z,12.51
2017-10-08T01:52:06.592Z,12.51
2017-10-08T01:52:07.192Z,12.52
2017-10-08T01:52:07.793Z,12.54
2017-10-08T01:52:08.391Z,12.52
2017-10-08T01:52:08.991Z,12.52
2017-10-08T01:52:09.594Z,12.52
2017-10-08T01:52:10.192Z,12.60
2017-10-08T01:53:03.670Z,12.56
2017-10-08T01:53:04.243Z,12.48
2017-10-08T01:53:04.844Z,12.54
2017-10-08T01:53:05.444Z,12.56
2017-10-08T01:53:06.043Z,12.59
2017-10-08T01:53:06.643Z,12.52
2017-10-08T01:53:07.248Z,12.49
2017-10-08T01:53:07.842Z,12.54
2017-10-08T01:54:02.854Z,12.45
2017-10-08T01:54:03.430Z,12.57
2017-10-08T01:54:04.029Z,12.51
2017-10-08T01:54:04.630Z,12.59
2017-10-08T01:54:05.230Z,12.51
2017-10-08T01:54:05.830Z,12.52
2017-10-08T01:54:06.429Z,12.54
2017-10-08T01:55:00.918Z,12.51
2017-10-08T01:55:01.491Z,12.51
2017-10-08T01:55:02.090Z,12.59
2017-10-08T01:55:02.690Z,12.54
2017-10-08T01:55:03.290Z,12.56
2017-10-08T01:55:03.890Z,12.49
2017-10-08T01:55:04.491Z,12.51
2017-10-08T01:55:05.090Z,12.52
2017-10-08T01:55:59.593Z,12.52
2017-10-08T01:56:00.169Z,12.48
2017-10-08T01:56:00.771Z,12.51
2017-10-08T01:56:01.369Z,12.51
2017-10-08T01:56:01.968Z,12.51
2017-10-08T01:56:02.567Z,12.56
2017-10-08T01:56:03.166Z,12.57
2017-10-08T01:56:03.766Z,12.52
2017-10-08T01:56:58.269Z,12.51
2017-10-08T01:56:58.843Z,12.57
2017-10-08T01:56:59.445Z,12.59
2017-10-08T01:57:00.044Z,12.59
2017-10-08T01:57:00.643Z,12.57
2017-10-08T01:57:01.244Z,12.60
2017-10-08T01:57:01.844Z,12.52
2017-10-08T01:57:02.446Z,12.51
2017-10-08T01:57:55.921Z,12.52
2017-10-08T01:57:56.495Z,12.52
2017-10-08T01:57:57.095Z,12.59
2017-10-08T01:57:57.696Z,12.51
2017-10-08T01:57:58.296Z,12.54
2017-10-08T01:57:58.897Z,12.57
2017-10-08T01:57:59.495Z,12.51
2017-10-08T01:58:00.095Z,12.60
2017-10-08T01:58:54.598Z,12.54
2017-10-08T01:58:55.171Z,12.54
2017-10-08T01:58:55.772Z,12.57
2017-10-08T01:58:56.371Z,12.54
2017-10-08T01:58:56.974Z,12.56
2017-10-08T01:58:57.570Z,12.51
2017-10-08T01:58:58.170Z,12.51
2017-10-08T01:58:58.771Z,12.52
2017-10-08T01:59:53.274Z,12.41
2017-10-08T01:59:53.845Z,12.56
2017-10-08T01:59:54.447Z,12.49
2017-10-08T01:59:55.045Z,12.49
2017-10-08T01:59:55.645Z,12.54
2017-10-08T01:59:56.245Z,12.44
2017-10-08T01:59:56.846Z,12.52
2017-10-08T01:59:57.448Z,12.51
2017-10-08T02:00:51.951Z,12.44
2017-10-08T02:00:52.522Z,12.44
2017-10-08T02:00:53.122Z,12.42
2017-10-08T02:00:53.723Z,12.52
2017-10-08T02:00:54.321Z,12.48
2017-10-08T02:00:54.920Z,12.41
2017-10-08T02:00:55.521Z,12.44
2017-10-08T02:00:56.122Z,12.44
2017-10-08T02:01:50.624Z,12.42
2017-10-08T02:01:51.200Z,12.44
2017-10-08T02:01:51.799Z,12.41
2017-10-08T02:01:52.398Z,12.42
2017-10-08T02:01:52.998Z,12.54
2017-10-08T02:01:53.597Z,12.44
2017-10-08T02:01:54.197Z,12.46
2017-10-08T02:01:54.797Z,12.42
2017-10-08T02:02:51.345Z,12.41
2017-10-08T02:02:51.922Z,12.41
2017-10-08T02:02:52.521Z,12.44
2017-10-08T02:03:46.029Z,12.39
2017-10-08T02:03:46.604Z,12.42
2017-10-08T02:03:47.202Z,12.45
2017-10-08T02:03:47.803Z,12.44
2017-10-08T02:03:48.405Z,12.46
2017-10-08T02:03:49.002Z,12.45
2017-10-08T02:03:49.602Z,12.39
2017-10-08T02:03:50.203Z,12.42
2017-10-08T02:05:15.843Z,12.45
2017-10-08T02:05:16.408Z,12.44
2017-10-08T02:05:17.009Z,12.52
2017-10-08T02:05:17.609Z,12.44
2017-10-08T02:05:18.209Z,12.44
2017-10-08T02:06:12.258Z,12.51
2017-10-08T02:06:12.833Z,12.51
2017-10-08T02:06:13.432Z,12.54
2017-10-08T02:06:14.032Z,12.59
2017-10-08T02:06:14.633Z,12.56
2017-10-08T02:06:15.233Z,12.60
2017-10-08T02:06:15.831Z,12.52
2017-10-08T02:06:16.432Z,12.48
2017-10-08T02:07:10.935Z,12.54
2017-10-08T02:07:11.507Z,12.56
2017-10-08T02:07:12.114Z,12.56
2017-10-08T02:07:12.708Z,12.63
2017-10-08T02:07:13.307Z,12.63
2017-10-08T02:07:13.909Z,12.63
2017-10-08T02:07:14.507Z,12.54
2017-10-08T02:07:15.112Z,12.57
2017-10-08T02:08:08.584Z,12.56
2017-10-08T02:08:09.158Z,12.59
2017-10-08T02:08:09.760Z,12.59
2017-10-08T02:08:10.359Z,12.59
2017-10-08T02:08:10.957Z,12.57
2017-10-08T02:08:11.561Z,12.63
2017-10-08T02:08:12.160Z,12.54
2017-10-08T02:08:12.757Z,12.48
2017-10-08T02:09:06.748Z,12.59
2017-10-08T02:09:07.330Z,12.52
2017-10-08T02:09:07.921Z,12.54
2017-10-08T02:09:08.521Z,12.56
2017-10-08T02:09:09.122Z,12.63
2017-10-08T02:09:09.725Z,12.67
2017-10-08T02:09:10.324Z,12.56
2017-10-08T02:10:04.809Z,12.60
2017-10-08T02:10:05.383Z,12.67
2017-10-08T02:10:05.982Z,12.63
2017-10-08T02:10:06.582Z,12.54
2017-10-08T02:10:07.182Z,12.63
2017-10-08T02:10:07.781Z,12.77
2017-10-08T02:10:08.381Z,12.64
2017-10-08T02:10:08.982Z,12.77
2017-10-08T02:11:02.463Z,12.67
2017-10-08T02:11:03.040Z,12.52
2017-10-08T02:11:03.641Z,12.57
2017-10-08T02:11:04.237Z,12.75
2017-10-08T02:11:04.835Z,12.67
2017-10-08T02:11:05.438Z,12.64
2017-10-08T02:11:06.036Z,12.56
2017-10-08T02:11:06.636Z,12.60
2017-10-08T02:12:00.113Z,12.66
2017-10-08T02:12:00.687Z,12.63
2017-10-08T02:12:01.287Z,12.57
2017-10-08T02:12:01.887Z,12.59
2017-10-08T02:12:02.487Z,12.75
2017-10-08T02:12:03.089Z,12.77
2017-10-08T02:12:03.690Z,12.56
2017-10-08T02:12:04.287Z,12.54
2017-10-08T02:12:57.765Z,12.59
2017-10-08T02:12:58.340Z,12.59
2017-10-08T02:12:58.940Z,12.71
2017-10-08T02:12:59.541Z,12.70
2017-10-08T02:13:00.140Z,12.62
2017-10-08T02:13:00.741Z,12.56
2017-10-08T02:13:01.339Z,12.62
2017-10-08T02:13:01.939Z,12.57
2017-10-08T02:13:56.441Z,12.63
2017-10-08T02:13:57.016Z,12.70
2017-10-08T02:13:57.615Z,12.67
2017-10-08T02:13:58.216Z,12.64
2017-10-08T02:13:58.829Z,12.74
2017-10-08T02:13:59.416Z,12.64
2017-10-08T02:14:00.015Z,12.59
2017-10-08T02:14:00.613Z,12.64
2017-10-08T02:14:55.117Z,12.62
2017-10-08T02:14:55.692Z,12.69
2017-10-08T02:14:56.290Z,12.70
2017-10-08T02:14:56.891Z,12.71
2017-10-08T02:14:57.490Z,12.64
2017-10-08T02:14:58.092Z,12.70
2017-10-08T02:14:58.689Z,12.69
2017-10-08T02:14:59.290Z,12.70
2017-10-08T02:15:52.767Z,12.64
2017-10-08T02:15:53.343Z,12.67
2017-10-08T02:15:53.946Z,12.67
2017-10-08T02:15:54.544Z,12.66
2017-10-08T02:15:55.143Z,12.69
2017-10-08T02:15:55.746Z,12.69
2017-10-08T02:15:56.343Z,12.64
2017-10-08T02:15:56.942Z,12.64
2017-10-08T02:16:51.446Z,12.70
2017-10-08T02:16:52.018Z,12.63
2017-10-08T02:16:52.617Z,12.60
2017-10-08T02:16:53.217Z,12.62
2017-10-08T02:16:53.818Z,12.60
2017-10-08T02:16:54.417Z,12.59
2017-10-08T02:16:55.017Z,12.63
2017-10-08T02:16:55.616Z,12.60
2017-10-08T02:17:49.095Z,12.69
2017-10-08T02:17:49.669Z,12.63
2017-10-08T02:17:50.270Z,12.59
2017-10-08T02:17:50.870Z,12.57
2017-10-08T02:17:51.471Z,12.56
2017-10-08T02:17:52.071Z,12.62
2017-10-08T02:17:52.669Z,12.57
2017-10-08T02:17:53.276Z,12.59
2017-10-08T02:18:47.772Z,12.57
2017-10-08T02:18:48.345Z,12.74
2017-10-08T02:18:48.944Z,12.63
2017-10-08T02:18:49.544Z,12.59
2017-10-08T02:18:50.145Z,12.54
2017-10-08T02:18:50.744Z,12.62
2017-10-08T02:18:51.346Z,12.60
2017-10-08T02:18:51.945Z,12.59
2017-10-08T02:19:46.448Z,12.67
2017-10-08T02:19:47.020Z,12.59
2017-10-08T02:19:47.620Z,12.60
2017-10-08T02:19:48.222Z,12.56
2017-10-08T02:19:48.820Z,12.59
2017-10-08T02:19:49.420Z,12.59
2017-10-08T02:19:50.021Z,12.62
2017-10-08T02:19:50.619Z,12.57
2017-10-08T02:20:44.105Z,12.54
2017-10-08T02:20:44.672Z,12.54
2017-10-08T02:20:45.273Z,12.67
2017-10-08T02:20:45.874Z,12.64
2017-10-08T02:20:46.473Z,12.56
2017-10-08T02:20:47.074Z,12.78
2017-10-08T02:20:47.673Z,12.74
2017-10-08T02:20:48.273Z,12.62
2017-10-08T02:21:41.750Z,12.66
2017-10-08T02:21:42.325Z,12.66
2017-10-08T02:21:42.925Z,12.66
2017-10-08T02:21:43.526Z,12.57
2017-10-08T02:21:44.124Z,12.51
2017-10-08T02:21:44.725Z,12.66
2017-10-08T02:21:45.325Z,12.62
2017-10-08T02:21:45.924Z,12.66
2017-10-08T02:22:40.426Z,12.54
2017-10-08T02:22:40.999Z,12.52
2017-10-08T02:22:41.599Z,12.69
2017-10-08T02:22:42.199Z,12.77
2017-10-08T02:22:42.800Z,12.52
2017-10-08T02:22:43.399Z,12.56
2017-10-08T02:22:44.002Z,12.54
2017-10-08T02:22:44.598Z,12.60
2017-10-08T02:23:38.078Z,12.57
2017-10-08T02:23:38.652Z,12.60
2017-10-08T02:23:39.251Z,12.56
2017-10-08T02:23:39.853Z,12.66
2017-10-08T02:23:40.452Z,12.66
2017-10-08T02:23:41.052Z,12.59
2017-10-08T02:23:41.651Z,12.67
2017-10-08T02:23:42.252Z,12.57
2017-10-08T02:24:35.729Z,12.59
2017-10-08T02:24:36.303Z,12.66
2017-10-08T02:24:36.903Z,12.56
2017-10-08T02:24:37.504Z,12.59
2017-10-08T02:24:38.103Z,12.60
2017-10-08T02:24:38.704Z,12.66
2017-10-08T02:24:39.303Z,12.62
2017-10-08T02:24:39.902Z,12.56
2017-10-08T02:25:33.381Z,12.46
2017-10-08T02:25:33.954Z,12.57
2017-10-08T02:25:34.559Z,12.52
2017-10-08T02:25:35.155Z,12.66
2017-10-08T02:25:35.753Z,12.62
2017-10-08T02:25:36.360Z,12.56
2017-10-08T02:25:36.953Z,12.59
2017-10-08T02:25:37.553Z,12.49
2017-10-08T02:26:32.057Z,12.54
2017-10-08T02:26:32.630Z,12.77
2017-10-08T02:26:33.230Z,12.60
2017-10-08T02:26:33.829Z,12.56
2017-10-08T02:26:34.431Z,12.57
2017-10-08T02:26:35.031Z,12.52
2017-10-08T02:26:35.630Z,12.54
2017-10-08T02:26:36.230Z,12.57
2017-10-08T02:27:29.708Z,12.60
2017-10-08T02:27:30.282Z,12.74
2017-10-08T02:27:30.882Z,12.52
2017-10-08T02:27:31.482Z,12.64
2017-10-08T02:27:32.080Z,12.51
2017-10-08T02:27:32.684Z,12.66
2017-10-08T02:27:33.282Z,12.60
2017-10-08T02:27:33.881Z,12.56
2017-10-08T02:28:28.388Z,12.63
2017-10-08T02:28:28.957Z,12.60
2017-10-08T02:28:29.557Z,12.67
2017-10-08T02:28:30.157Z,12.56
2017-10-08T02:28:30.757Z,12.57
2017-10-08T02:28:31.358Z,12.78
2017-10-08T02:28:31.956Z,12.63
2017-10-08T02:28:32.557Z,12.70
2017-10-08T02:29:27.060Z,12.77
2017-10-08T02:29:27.633Z,12.59
2017-10-08T02:29:28.233Z,12.60
2017-10-08T02:29:28.832Z,12.54
2017-10-08T02:29:29.432Z,12.54
2017-10-08T02:29:30.034Z,12.57
2017-10-08T02:29:30.636Z,12.59
2017-10-08T02:29:31.233Z,12.71
2017-10-08T02:30:25.735Z,12.59
2017-10-08T02:30:26.309Z,12.57
2017-10-08T02:30:26.909Z,12.64
2017-10-08T02:30:27.510Z,12.60
2017-10-08T02:30:28.107Z,12.62
2017-10-08T02:30:28.711Z,12.60
2017-10-08T02:30:29.308Z,12.62
2017-10-08T02:30:29.912Z,12.64
2017-10-08T02:31:23.391Z,12.62
2017-10-08T02:31:23.962Z,12.57
2017-10-08T02:31:24.561Z,12.57
2017-10-08T02:31:25.166Z,12.66
2017-10-08T02:31:25.763Z,12.60
2017-10-08T02:31:26.362Z,12.64
2017-10-08T02:31:26.961Z,12.63
2017-10-08T02:31:27.562Z,12.59
2017-10-08T02:32:21.039Z,12.57
2017-10-08T02:32:21.613Z,12.56
2017-10-08T02:32:22.211Z,12.60
2017-10-08T02:32:22.812Z,12.63
2017-10-08T02:32:23.415Z,12.60
2017-10-08T02:32:24.014Z,12.71
2017-10-08T02:32:24.612Z,12.59
2017-10-08T02:32:25.212Z,12.59
2017-10-08T02:33:21.249Z,12.62
2017-10-08T02:33:21.824Z,12.64
2017-10-08T02:33:22.422Z,12.62
2017-10-08T02:33:23.026Z,12.62
2017-10-08T02:33:23.624Z,12.62
2017-10-08T02:33:24.224Z,12.67
2017-10-08T02:50:56.996Z,12.67
2017-10-08T02:50:57.577Z,12.64
2017-10-08T02:50:58.170Z,12.67
2017-10-08T02:50:58.770Z,12.69
2017-10-08T02:50:59.369Z,12.67
2017-10-08T02:50:59.968Z,12.69
2017-10-08T02:51:00.570Z,12.67
2017-10-08T02:51:01.168Z,12.62
2017-10-08T02:51:55.672Z,12.56
2017-10-08T02:51:56.247Z,12.67
2017-10-08T02:51:56.846Z,12.66
2017-10-08T02:51:57.446Z,12.63
2017-10-08T02:51:58.047Z,12.67
2017-10-08T02:51:58.646Z,12.70
2017-10-08T02:51:59.245Z,12.69
2017-10-08T02:51:59.847Z,12.69
2017-10-08T02:52:53.325Z,12.66
2017-10-08T02:52:53.899Z,12.70
2017-10-08T02:52:54.504Z,12.75
2017-10-08T02:52:55.099Z,12.64
2017-10-08T02:52:55.699Z,12.67
2017-10-08T02:52:56.303Z,12.63
2017-10-08T02:52:56.899Z,12.69
2017-10-08T02:52:57.499Z,12.69
2017-10-08T02:53:52.004Z,12.66
2017-10-08T02:53:52.577Z,12.70
2017-10-08T02:53:53.178Z,12.66
2017-10-08T02:53:53.774Z,12.64
2017-10-08T02:53:54.374Z,12.63
2017-10-08T02:53:54.975Z,12.64
2017-10-08T02:53:55.575Z,12.69
2017-10-08T02:53:56.174Z,12.66
2017-10-08T02:54:49.653Z,12.69
2017-10-08T02:54:50.227Z,12.69
2017-10-08T02:54:50.827Z,12.70
2017-10-08T02:54:51.427Z,12.67
2017-10-08T02:54:52.028Z,12.67
2017-10-08T02:54:52.628Z,12.69
2017-10-08T02:54:53.231Z,12.67
2017-10-08T02:54:53.828Z,12.70
2017-10-08T02:55:48.330Z,12.70
2017-10-08T02:55:48.904Z,12.69
2017-10-08T02:55:49.505Z,12.71
2017-10-08T02:55:50.104Z,12.70
2017-10-08T02:55:50.704Z,12.75
2017-10-08T02:55:51.303Z,12.67
2017-10-08T02:55:51.903Z,12.69
2017-10-08T02:55:52.503Z,12.64
2017-10-08T02:56:45.982Z,12.67
2017-10-08T02:56:46.556Z,12.70
2017-10-08T02:56:47.157Z,12.67
2017-10-08T02:56:47.757Z,12.71
2017-10-08T02:56:48.361Z,12.67
2017-10-08T02:56:48.957Z,12.70
2017-10-08T02:56:49.554Z,12.74
2017-10-08T02:56:50.155Z,12.71
2017-10-08T02:57:43.641Z,12.69
2017-10-08T02:57:44.208Z,12.75
2017-10-08T02:57:44.810Z,12.74
2017-10-08T02:57:45.407Z,12.71
2017-10-08T02:57:46.009Z,12.74
2017-10-08T02:57:46.608Z,12.64
2017-10-08T02:57:47.209Z,12.71
2017-10-08T02:57:47.809Z,12.69
2017-10-08T02:58:42.310Z,12.71
2017-10-08T02:58:42.884Z,12.75
2017-10-08T02:58:43.485Z,12.70
2017-10-08T02:58:44.083Z,12.71
2017-10-08T02:58:44.687Z,12.70
2017-10-08T02:58:45.283Z,12.75
2017-10-08T02:58:45.884Z,12.75
2017-10-08T02:58:46.483Z,12.75
2017-10-08T02:59:39.961Z,12.67
2017-10-08T02:59:40.537Z,12.75
2017-10-08T02:59:41.136Z,12.77
2017-10-08T02:59:41.735Z,12.75
2017-10-08T02:59:42.336Z,12.75
2017-10-08T02:59:42.935Z,12.74
2017-10-08T02:59:43.535Z,12.75
2017-10-08T02:59:44.136Z,12.75
2017-10-08T03:00:38.638Z,12.77
2017-10-08T03:00:39.210Z,12.77
2017-10-08T03:00:39.815Z,12.81
2017-10-08T03:00:40.410Z,12.79
2017-10-08T03:00:41.010Z,12.82
2017-10-08T03:00:41.609Z,12.74
2017-10-08T03:00:42.211Z,12.70
2017-10-08T03:00:42.809Z,12.78
2017-10-08T03:01:36.288Z,12.74
2017-10-08T03:01:36.863Z,12.79
2017-10-08T03:01:37.464Z,12.84
2017-10-08T03:01:38.062Z,12.74
2017-10-08T03:01:38.662Z,12.77
2017-10-08T03:01:39.263Z,12.79
2017-10-08T03:01:39.863Z,12.77
2017-10-08T03:01:40.462Z,12.79
2017-10-08T03:02:33.939Z,12.79
2017-10-08T03:02:34.515Z,12.84
2017-10-08T03:02:35.115Z,12.71
2017-10-08T03:02:35.715Z,12.75
2017-10-08T03:02:36.315Z,12.74
2017-10-08T03:02:36.917Z,12.74
2017-10-08T03:02:37.514Z,12.78
2017-10-08T03:02:38.116Z,12.78
2017-10-08T03:03:31.591Z,12.75
2017-10-08T03:03:32.167Z,12.74
2017-10-08T03:03:32.767Z,12.79
2017-10-08T03:03:33.367Z,12.82
2017-10-08T03:03:33.967Z,12.79
2017-10-08T03:03:34.566Z,12.78
2017-10-08T03:03:35.166Z,12.78
2017-10-08T03:03:35.768Z,12.69
2017-10-08T03:04:30.270Z,12.81
2017-10-08T03:04:30.841Z,12.78
2017-10-08T03:04:31.441Z,12.71
2017-10-08T03:04:32.041Z,12.74
2017-10-08T03:04:32.639Z,12.78
2017-10-08T03:04:33.242Z,12.74
2017-10-08T03:04:33.841Z,12.75
2017-10-08T03:04:34.440Z,12.74
2017-10-08T03:05:28.944Z,12.75
2017-10-08T03:05:29.517Z,12.75
2017-10-08T03:05:30.116Z,12.70
2017-10-08T03:05:30.717Z,12.74
2017-10-08T03:05:31.317Z,12.78
2017-10-08T03:05:31.916Z,12.70
2017-10-08T03:05:32.516Z,12.71
2017-10-08T03:05:33.116Z,12.75
2017-10-08T03:06:27.620Z,12.74
2017-10-08T03:06:28.193Z,12.74
2017-10-08T03:06:28.793Z,12.74
2017-10-08T03:06:29.396Z,12.81
2017-10-08T03:06:29.995Z,12.77
2017-10-08T03:06:30.593Z,12.77
2017-10-08T03:06:31.193Z,12.70
2017-10-08T03:06:31.795Z,12.87
2017-10-08T03:07:26.296Z,12.71
2017-10-08T03:07:26.868Z,12.81
2017-10-08T03:07:27.469Z,12.87
2017-10-08T03:07:28.067Z,12.81
2017-10-08T03:07:28.667Z,12.78
2017-10-08T03:07:29.267Z,12.77
2017-10-08T03:07:29.867Z,12.79
2017-10-08T03:07:30.470Z,12.84
2017-10-08T03:08:24.971Z,12.79
2017-10-08T03:08:25.544Z,12.78
2017-10-08T03:08:26.144Z,12.88
2017-10-08T03:08:26.744Z,12.85
2017-10-08T03:08:27.344Z,12.79
2017-10-08T03:08:27.943Z,12.78
2017-10-08T03:08:28.544Z,12.87
2017-10-08T03:08:29.145Z,12.88
2017-10-08T03:09:23.646Z,12.84
2017-10-08T03:09:24.222Z,12.77
2017-10-08T03:09:24.819Z,12.89
2017-10-08T03:09:25.420Z,12.87
2017-10-08T03:09:26.023Z,12.82
2017-10-08T03:09:26.618Z,12.79
2017-10-08T03:09:27.219Z,12.79
2017-10-08T03:09:27.820Z,12.89
2017-10-08T03:10:21.298Z,12.87
2017-10-08T03:10:21.874Z,12.87
2017-10-08T03:10:22.474Z,12.82
2017-10-08T03:10:23.084Z,12.81
2017-10-08T03:10:23.672Z,12.93
2017-10-08T03:10:24.275Z,12.84
2017-10-08T03:10:24.873Z,12.87
2017-10-08T03:10:25.472Z,12.85
2017-10-08T03:11:18.950Z,12.89
2017-10-08T03:11:19.525Z,12.84
2017-10-08T03:11:20.125Z,12.89
2017-10-08T03:11:20.724Z,12.87
2017-10-08T03:11:21.323Z,12.88
2017-10-08T03:11:21.925Z,12.82
2017-10-08T03:11:22.525Z,12.96
2017-10-08T03:11:23.124Z,12.88
2017-10-08T03:12:16.601Z,12.95
2017-10-08T03:12:17.176Z,12.89
2017-10-08T03:12:17.775Z,12.96
2017-10-08T03:12:18.377Z,12.99
2017-10-08T03:12:18.975Z,12.87
2017-10-08T03:12:19.577Z,12.96
2017-10-08T03:12:20.175Z,12.96
2017-10-08T03:12:20.775Z,12.97
2017-10-08T03:13:15.281Z,13.04
2017-10-08T03:13:15.851Z,13.03
2017-10-08T03:13:16.449Z,12.96
2017-10-08T03:13:17.049Z,12.97
2017-10-08T03:13:17.649Z,13.00
2017-10-08T03:13:18.249Z,12.87
2017-10-08T03:13:18.849Z,12.97
2017-10-08T03:13:19.449Z,12.99
2017-10-08T03:14:12.929Z,12.99
2017-10-08T03:14:13.504Z,13.00
2017-10-08T03:14:14.105Z,13.06
2017-10-08T03:14:14.702Z,13.07
2017-10-08T03:14:15.303Z,13.03
2017-10-08T03:14:15.908Z,12.99
2017-10-08T03:14:16.503Z,13.04
2017-10-08T03:14:17.102Z,12.99
2017-10-08T03:15:10.581Z,13.07
2017-10-08T03:15:11.155Z,13.02
2017-10-08T03:15:11.755Z,13.04
2017-10-08T03:15:12.356Z,13.07
2017-10-08T03:15:12.958Z,13.03
2017-10-08T03:15:13.556Z,12.97
2017-10-08T03:15:14.158Z,13.03
2017-10-08T03:15:14.754Z,12.96
2017-10-08T03:16:09.258Z,12.99
2017-10-08T03:16:09.832Z,13.02
2017-10-08T03:16:10.430Z,13.02
2017-10-08T03:16:11.030Z,13.02
2017-10-08T03:16:11.629Z,12.99
2017-10-08T03:16:12.228Z,12.97
2017-10-08T03:16:12.829Z,12.93
2017-10-08T03:16:13.429Z,13.02
2017-10-08T03:17:06.907Z,12.95
2017-10-08T03:17:07.482Z,13.06
2017-10-08T03:17:08.083Z,13.04
2017-10-08T03:17:08.682Z,13.02
2017-10-08T03:17:09.282Z,12.99
2017-10-08T03:17:09.883Z,13.02
2017-10-08T03:17:10.483Z,13.03
2017-10-08T03:17:11.084Z,13.03
2017-10-08T03:18:05.586Z,13.04
2017-10-08T03:18:06.158Z,13.02
2017-10-08T03:18:06.757Z,12.99
2017-10-08T03:18:07.357Z,13.03
2017-10-08T03:18:07.957Z,13.04
2017-10-08T03:18:08.557Z,13.03
2017-10-08T03:18:09.157Z,13.04
2017-10-08T03:18:09.757Z,13.04
2017-10-08T03:19:04.261Z,13.02
2017-10-08T03:19:04.834Z,13.02
2017-10-08T03:19:05.434Z,13.06
2017-10-08T03:19:06.033Z,13.04
2017-10-08T03:19:06.633Z,13.03
2017-10-08T03:19:07.232Z,13.14
2017-10-08T03:19:07.833Z,13.12
2017-10-08T03:19:08.432Z,13.06
2017-10-08T03:20:01.913Z,13.04
2017-10-08T03:20:02.485Z,13.06
2017-10-08T03:20:03.085Z,13.06
2017-10-08T03:20:03.685Z,13.06
2017-10-08T03:20:04.285Z,13.06
2017-10-08T03:20:04.884Z,13.06
2017-10-08T03:20:05.484Z,13.06
2017-10-08T03:20:06.084Z,13.02
2017-10-08T03:20:59.563Z,13.04
2017-10-08T03:21:00.137Z,13.09
2017-10-08T03:21:00.738Z,13.06
2017-10-08T03:21:01.337Z,13.09
2017-10-08T03:21:01.937Z,13.11
2017-10-08T03:21:02.537Z,13.07
2017-10-08T03:21:03.137Z,13.04
2017-10-08T03:21:03.737Z,13.14
2017-10-08T03:21:57.214Z,13.07
2017-10-08T03:21:57.792Z,13.06
2017-10-08T03:21:58.389Z,13.15
2017-10-08T03:21:58.989Z,13.14
2017-10-08T03:21:59.589Z,13.11
2017-10-08T03:22:00.189Z,13.11
2017-10-08T03:22:00.789Z,13.18
2017-10-08T03:22:01.389Z,13.11
2017-10-08T03:22:55.892Z,13.18
2017-10-08T03:22:56.466Z,13.07
2017-10-08T03:22:57.064Z,13.18
2017-10-08T03:22:57.662Z,13.02
2017-10-08T03:22:58.264Z,13.06
2017-10-08T03:22:58.865Z,13.11
2017-10-08T03:22:59.463Z,13.09
2017-10-08T03:23:00.065Z,13.07
2017-10-08T03:23:53.542Z,13.07
2017-10-08T03:23:54.116Z,13.12
2017-10-08T03:23:54.715Z,13.12
2017-10-08T03:23:55.320Z,13.11
2017-10-08T03:23:55.915Z,13.17
2017-10-08T03:23:56.516Z,13.12
2017-10-08T03:23:57.115Z,13.15
2017-10-08T03:23:57.715Z,13.12
2017-10-08T03:24:52.219Z,13.12
2017-10-08T03:24:52.791Z,13.12
2017-10-08T03:24:53.391Z,13.14
2017-10-08T03:24:53.991Z,13.12
2017-10-08T03:24:54.590Z,13.09
2017-10-08T03:24:55.194Z,13.09
2017-10-08T03:24:55.792Z,13.15
2017-10-08T03:24:56.390Z,13.22
2017-10-08T03:25:50.894Z,13.07
2017-10-08T03:25:51.467Z,13.12
2017-10-08T03:25:52.066Z,13.12
2017-10-08T03:25:52.668Z,13.11
2017-10-08T03:25:53.267Z,13.14
2017-10-08T03:25:53.866Z,13.12
2017-10-08T03:25:54.470Z,13.11
2017-10-08T03:25:55.066Z,13.12
2017-10-08T03:26:48.544Z,13.17
2017-10-08T03:26:49.119Z,13.17
2017-10-08T03:26:49.718Z,13.20
2017-10-08T03:26:50.320Z,13.17
2017-10-08T03:26:50.917Z,13.04
2017-10-08T03:26:51.519Z,13.03
2017-10-08T03:26:52.118Z,13.17
2017-10-08T03:26:52.719Z,13.06
2017-10-08T03:27:46.195Z,13.11
2017-10-08T03:27:46.771Z,13.12
2017-10-08T03:27:47.372Z,13.03
2017-10-08T03:27:47.970Z,13.12
2017-10-08T03:27:48.574Z,13.04
2017-10-08T03:27:49.171Z,13.11
2017-10-08T03:27:49.771Z,13.12
2017-10-08T03:27:50.370Z,13.12
2017-10-08T03:28:43.848Z,13.11